createdAt,value
2022-12-11T00:01:32.342Z,98.78
2022-12-11T00:04:35.931Z,99.13
2022-12-11T00:07:40.241Z,98.85
2022-12-11T00:10:50.152Z,98.84
2022-12-11T00:13:53.691Z,98.69
2022-12-11T00:16:56.680Z,98.86
2022-12-11T00:19:59.411Z,98.75
2022-12-11T00:23:04.992Z,98.96
2022-12-11T00:26:14.302Z,99.03
2022-12-11T00:29:17.262Z,98.94
2022-12-11T00:32:20.296Z,98.87
2022-12-11T00:35:23.323Z,99.02
2022-12-11T00:38:26.031Z,98.97
2022-12-11T00:41:28.995Z,99.02
2022-12-11T00:44:31.841Z,99.03
2022-12-11T00:47:34.930Z,99.02
2022-12-11T00:50:38.347Z,99.06
2022-12-11T00:53:41.289Z,99.19
2022-12-11T00:56:44.195Z,99.73
2022-12-11T00:59:47.168Z,99.36
2022-12-11T01:02:50.487Z,99.32
2022-12-11T01:05:56.601Z,99.20
2022-12-11T01:09:17.840Z,99.25
2022-12-11T01:12:20.989Z,99.33
2022-12-11T01:15:29.268Z,99.22
2022-12-11T01:18:34.450Z,99.38
2022-12-11T01:21:37.202Z,99.41
2022-12-11T01:24:41.831Z,99.50
2022-12-11T01:27:44.480Z,99.42
2022-12-11T01:30:47.620Z,99.48
2022-12-11T01:33:50.366Z,99.46
2022-12-11T01:36:53.351Z,99.24
2022-12-11T01:39:56.089Z,99.32
2022-12-11T01:42:59.089Z,99.29
2022-12-11T01:46:02.025Z,99.15
2022-12-11T01:49:09.425Z,98.96
2022-12-11T01:52:16.467Z,98.95
2022-12-11T01:55:20.695Z,98.60
2022-12-11T01:58:32.431Z,98.61
2022-12-11T02:01:55.413Z,98.28
2022-12-11T02:04:58.356Z,98.03
2022-12-11T02:08:03.645Z,97.71
2022-12-11T02:11:11.076Z,97.52
2022-12-11T02:14:53.801Z,97.11
2022-12-11T02:18:11.460Z,96.83
2022-12-11T02:21:29.282Z,96.94
2022-12-11T02:24:51.683Z,97.07
2022-12-11T02:28:17.585Z,97.06
2022-12-11T02:31:40.414Z,97.06
2022-12-11T02:35:09.668Z,97.38
2022-12-11T02:38:17.995Z,97.67
2022-12-11T02:41:22.376Z,97.70
2022-12-11T02:44:30.557Z,97.93
2022-12-11T02:47:34.989Z,97.88
2022-12-11T02:50:42.634Z,97.96
2022-12-11T02:53:46.676Z,98.08
2022-12-11T02:57:19.176Z,98.14
2022-12-11T03:00:22.057Z,98.16
2022-12-11T03:03:25.311Z,98.38
2022-12-11T03:06:40.255Z,98.49
2022-12-11T03:09:45.791Z,98.42
2022-12-11T03:12:53.887Z,98.61
2022-12-11T03:16:07.457Z,98.60
2022-12-11T03:19:38.213Z,98.52
2022-12-11T03:22:51.363Z,98.57
2022-12-11T03:26:03.683Z,98.74
2022-12-11T03:29:24.954Z,98.71
2022-12-11T03:32:42.410Z,98.63
2022-12-11T03:35:51.211Z,98.49
2022-12-11T03:38:59.251Z,98.49
2022-12-11T03:42:06.120Z,98.36
2022-12-11T03:45:10.195Z,98.34
2022-12-11T03:48:15.091Z,98.27
2022-12-11T03:51:18.559Z,98.27
2022-12-11T03:54:23.243Z,98.07
2022-12-11T03:57:31.150Z,97.98
2022-12-11T04:00:34.334Z,97.96
2022-12-11T04:03:38.093Z,97.98
2022-12-11T04:06:41.639Z,98.06
2022-12-11T04:09:44.613Z,97.86
2022-12-11T04:12:47.237Z,97.91
2022-12-11T04:15:50.303Z,97.93
2022-12-11T04:19:11.613Z,97.78
2022-12-11T04:22:35.410Z,97.81
2022-12-11T04:25:39.185Z,97.77
2022-12-11T04:28:43.636Z,97.71
2022-12-11T04:31:46.338Z,97.70
2022-12-11T04:34:50.943Z,97.61
2022-12-11T04:37:53.781Z,97.58
2022-12-11T04:41:01.518Z,97.48
2022-12-11T04:44:05.779Z,97.36
2022-12-11T04:47:08.919Z,97.03
2022-12-11T04:50:14.654Z,97.17
2022-12-11T04:53:18.428Z,97.05
2022-12-11T04:56:23.070Z,96.87
2022-12-11T04:59:26.186Z,96.46
2022-12-11T05:02:29.039Z,96.09
2022-12-11T05:05:32.096Z,95.53
2022-12-11T05:08:36.673Z,95.64
2022-12-11T05:11:42.209Z,95.52
2022-12-11T05:14:44.952Z,95.04
2022-12-11T05:17:47.933Z,95.11
2022-12-11T05:20:59.447Z,94.97
2022-12-11T05:24:03.395Z,94.68
2022-12-11T05:27:08.426Z,94.41
2022-12-11T05:30:11.709Z,94.56
2022-12-11T05:33:14.652Z,94.40
2022-12-11T05:36:32.458Z,94.21
2022-12-11T05:39:35.143Z,94.02
2022-12-11T05:42:39.262Z,93.79
2022-12-11T05:45:41.921Z,93.62
2022-12-11T05:48:48.555Z,93.20
2022-12-11T05:51:51.241Z,92.85
2022-12-11T05:54:54.273Z,92.49
2022-12-11T05:57:56.855Z,92.65
2022-12-11T06:01:00.016Z,92.35
2022-12-11T06:04:05.544Z,91.93
2022-12-11T06:07:10.881Z,91.60
2022-12-11T06:10:14.262Z,91.38
2022-12-11T06:13:17.822Z,91.13
2022-12-11T06:16:22.041Z,91.04
2022-12-11T06:19:24.712Z,90.63
2022-12-11T06:22:27.679Z,90.20
2022-12-11T06:25:31.015Z,89.79
2022-12-11T06:28:34.062Z,89.70
2022-12-11T06:31:36.820Z,89.46
2022-12-11T06:34:42.192Z,89.05
2022-12-11T06:37:44.834Z,89.10
2022-12-11T06:40:56.186Z,88.76
2022-12-11T06:43:58.806Z,88.66
2022-12-11T06:47:01.771Z,88.62
2022-12-11T06:50:05.114Z,88.35
2022-12-11T06:53:08.528Z,88.81
2022-12-11T06:56:15.946Z,88.60
2022-12-11T06:59:19.187Z,88.10
2022-12-11T07:02:22.015Z,87.78
2022-12-11T07:05:25.123Z,87.94
2022-12-11T07:08:29.893Z,88.07
2022-12-11T07:11:36.732Z,88.03
2022-12-11T07:14:39.411Z,87.89
2022-12-11T07:17:43.391Z,87.69
2022-12-11T07:20:46.207Z,87.61
2022-12-11T07:23:50.139Z,87.53
2022-12-11T07:26:53.165Z,87.56
2022-12-11T07:29:56.301Z,87.42
2022-12-11T07:32:59.023Z,87.38
2022-12-11T07:36:03.850Z,87.37
2022-12-11T07:39:07.850Z,87.25
2022-12-11T07:42:10.858Z,87.10
2022-12-11T07:45:14.344Z,87.23
2022-12-11T07:48:18.613Z,86.90
2022-12-11T07:51:30.690Z,86.79
2022-12-11T07:54:33.700Z,86.49
2022-12-11T07:57:36.368Z,86.21
2022-12-11T08:00:39.355Z,86.35
2022-12-11T08:03:42.733Z,86.02
2022-12-11T08:06:45.460Z,86.02
2022-12-11T08:09:48.400Z,85.89
2022-12-11T08:12:51.194Z,85.58
2022-12-11T08:15:54.907Z,85.57
2022-12-11T08:18:58.656Z,85.30
2022-12-11T08:22:01.728Z,85.26
2022-12-11T08:25:05.901Z,85.46
2022-12-11T08:28:08.843Z,85.38
2022-12-11T08:31:13.543Z,85.44
2022-12-11T08:34:16.795Z,85.27
2022-12-11T08:37:20.559Z,85.13
2022-12-11T08:40:23.769Z,84.96
2022-12-11T08:43:26.538Z,84.12
2022-12-11T08:46:32.651Z,84.09
2022-12-11T08:49:42.648Z,84.33
2022-12-11T08:52:45.722Z,84.36
2022-12-11T08:55:48.398Z,84.33
2022-12-11T08:58:52.422Z,84.49
2022-12-11T09:01:56.351Z,84.12
2022-12-11T09:04:59.289Z,84.21
2022-12-11T09:08:01.959Z,84.16
2022-12-11T09:11:11.219Z,84.33
2022-12-11T09:14:13.945Z,84.27
2022-12-11T09:17:19.634Z,84.37
2022-12-11T09:20:22.293Z,84.68
2022-12-11T09:23:25.360Z,84.62
2022-12-11T09:26:30.374Z,84.69
2022-12-11T09:29:33.447Z,84.39
2022-12-11T09:32:36.241Z,84.58
2022-12-11T09:35:39.990Z,84.71
2022-12-11T09:38:45.440Z,84.69
2022-12-11T09:42:10.613Z,84.71
2022-12-11T09:45:15.662Z,84.31
2022-12-11T09:48:22.539Z,83.97
2022-12-11T09:51:32.307Z,84.03
2022-12-11T09:54:37.070Z,83.39
2022-12-11T09:57:48.553Z,82.80
2022-12-11T10:01:09.500Z,82.63
2022-12-11T10:04:47.588Z,82.29
2022-12-11T10:08:14.853Z,80.85
2022-12-11T10:11:42.815Z,80.73
2022-12-11T10:15:12.764Z,80.59
2022-12-11T10:18:21.709Z,80.60
2022-12-11T10:21:26.703Z,80.32
2022-12-11T10:25:10.716Z,78.97
2022-12-11T10:28:17.072Z,79.81
2022-12-11T10:31:39.119Z,79.86
2022-12-11T10:34:47.997Z,80.29
2022-12-11T10:37:52.577Z,80.64
2022-12-11T10:40:59.511Z,81.29
2022-12-11T10:44:16.328Z,81.33
2022-12-11T10:47:19.109Z,81.30
2022-12-11T10:50:26.292Z,81.43
2022-12-11T10:53:30.629Z,81.52
2022-12-11T10:56:38.069Z,81.44
2022-12-11T10:59:43.463Z,81.25
2022-12-11T11:02:46.569Z,80.00
2022-12-11T11:05:50.869Z,79.72
2022-12-11T11:08:58.283Z,79.45
2022-12-11T11:12:07.410Z,79.37
2022-12-11T11:15:21.242Z,79.36
2022-12-11T11:18:27.219Z,79.23
2022-12-11T11:21:32.020Z,78.72
2022-12-11T11:24:54.002Z,77.41
2022-12-11T11:28:02.695Z,76.51
2022-12-11T11:31:09.102Z,76.20
2022-12-11T11:34:23.851Z,76.10
2022-12-11T11:37:33.219Z,75.23
2022-12-11T11:41:07.659Z,75.88
2022-12-11T11:44:19.127Z,73.92
2022-12-11T11:47:31.357Z,73.54
2022-12-11T11:50:36.607Z,74.62
2022-12-11T11:53:41.698Z,75.70
2022-12-11T11:56:45.333Z,75.96
2022-12-11T11:59:54.847Z,76.62
2022-12-11T12:03:01.572Z,76.69
2022-12-11T12:06:41.421Z,76.95
2022-12-11T12:09:57.704Z,77.56
2022-12-11T12:14:01.136Z,77.51
2022-12-11T12:17:10.015Z,77.96
2022-12-11T12:20:25.420Z,78.42
2022-12-11T12:23:43.767Z,78.91
2022-12-11T12:27:50.361Z,79.30
2022-12-11T12:31:08.858Z,79.65
2022-12-11T12:34:33.353Z,79.27
2022-12-11T12:37:47.422Z,79.51
2022-12-11T12:41:15.873Z,79.23
2022-12-11T12:44:22.567Z,79.39
2022-12-11T12:47:30.137Z,79.66
2022-12-11T12:50:43.966Z,79.42
2022-12-11T12:53:59.652Z,79.15
2022-12-11T12:57:04.478Z,78.53
2022-12-11T13:00:13.141Z,78.86
2022-12-11T13:03:20.456Z,78.76
2022-12-11T13:06:44.489Z,79.12
2022-12-11T13:10:03.867Z,78.96
2022-12-11T13:13:31.202Z,78.72
2022-12-11T13:16:41.442Z,78.87
2022-12-11T13:19:44.544Z,79.08
2022-12-11T13:23:18.101Z,78.96
2022-12-11T13:26:33.365Z,78.83
2022-12-11T13:29:42.280Z,78.59
2022-12-11T13:32:54.551Z,78.62
2022-12-11T13:36:24.102Z,78.96
2022-12-11T13:39:31.725Z,78.98
2022-12-11T13:42:44.471Z,78.98
2022-12-11T13:45:51.413Z,79.04
2022-12-11T13:49:01.349Z,79.30
2022-12-11T13:52:05.689Z,79.31
2022-12-11T13:55:24.505Z,78.87
2022-12-11T13:58:30.610Z,78.89
2022-12-11T14:01:35.656Z,79.00
2022-12-11T14:04:39.197Z,79.24
2022-12-11T14:07:57.379Z,79.21
2022-12-11T14:11:00.490Z,79.26
2022-12-11T14:14:07.077Z,79.49
2022-12-11T14:17:15.436Z,79.57
2022-12-11T14:20:25.875Z,79.99
2022-12-11T14:23:38.145Z,79.60
2022-12-11T14:26:49.938Z,80.13
2022-12-11T14:29:53.857Z,80.76
2022-12-11T14:33:05.376Z,80.83
2022-12-11T14:36:14.874Z,81.10
2022-12-11T14:39:25.575Z,81.49
2022-12-11T14:42:37.871Z,81.49
2022-12-11T14:45:44.928Z,81.84
2022-12-11T14:48:59.106Z,81.80
2022-12-11T14:52:04.682Z,82.12
2022-12-11T14:55:15.676Z,82.33
2022-12-11T14:58:23.995Z,82.46
2022-12-11T15:01:33.056Z,83.09
2022-12-11T15:04:36.746Z,83.42
2022-12-11T15:07:42.313Z,84.07
2022-12-11T15:11:00.202Z,84.32
2022-12-11T15:14:06.237Z,84.66
2022-12-11T15:17:14.718Z,84.89
2022-12-11T15:20:30.151Z,84.83
2022-12-11T15:23:47.162Z,84.79
2022-12-11T15:26:50.855Z,84.92
2022-12-11T15:29:54.296Z,85.04
2022-12-11T15:33:09.937Z,85.74
2022-12-11T15:36:30.874Z,85.49
2022-12-11T15:39:33.867Z,85.56
2022-12-11T15:42:40.837Z,85.58
2022-12-11T15:45:44.389Z,85.83
2022-12-11T15:48:51.132Z,86.02
2022-12-11T15:51:55.119Z,86.00
2022-12-11T15:54:58.189Z,86.00
2022-12-11T15:58:22.420Z,86.41
2022-12-11T16:01:25.912Z,86.38
2022-12-11T16:04:28.916Z,86.61
2022-12-11T16:07:32.945Z,86.86
2022-12-11T16:10:37.595Z,86.97
2022-12-11T16:13:40.569Z,87.56
2022-12-11T16:16:43.991Z,87.22
2022-12-11T16:19:46.951Z,87.55
2022-12-11T16:22:53.521Z,87.55
2022-12-11T16:25:56.324Z,87.24
2022-12-11T16:28:59.502Z,87.31
2022-12-11T16:32:02.780Z,87.31
2022-12-11T16:35:06.123Z,87.17
2022-12-11T16:38:10.271Z,86.87
2022-12-11T16:41:18.425Z,86.84
2022-12-11T16:44:23.277Z,86.66
2022-12-11T16:47:26.669Z,86.54
2022-12-11T16:50:30.182Z,86.39
2022-12-11T16:53:33.232Z,86.23
2022-12-11T16:56:36.411Z,86.15
2022-12-11T16:59:41.394Z,86.13
2022-12-11T17:02:44.167Z,85.60
2022-12-11T17:05:47.285Z,85.63
2022-12-11T17:08:51.261Z,85.83
2022-12-11T17:11:54.835Z,85.64
2022-12-11T17:14:57.882Z,85.45
2022-12-11T17:18:01.342Z,85.54
2022-12-11T17:21:09.297Z,85.55
2022-12-11T17:24:12.635Z,85.29
2022-12-11T17:27:17.010Z,85.15
2022-12-11T17:30:22.070Z,84.89
2022-12-11T17:33:25.990Z,84.71
2022-12-11T17:36:31.413Z,84.42
2022-12-11T17:39:42.475Z,84.29
2022-12-11T17:42:46.615Z,84.18
2022-12-11T17:45:57.645Z,83.90
2022-12-11T17:49:05.057Z,83.67
2022-12-11T17:52:08.673Z,83.52
2022-12-11T17:55:14.159Z,83.03
2022-12-11T17:58:20.658Z,83.14
2022-12-11T18:01:24.363Z,82.84
2022-12-11T18:04:29.252Z,82.62
2022-12-11T18:07:36.305Z,82.35
2022-12-11T18:10:40.958Z,82.28
2022-12-11T18:13:45.757Z,82.15
2022-12-11T18:16:49.839Z,81.59
2022-12-11T18:19:53.707Z,81.65
2022-12-11T18:22:59.778Z,81.58
2022-12-11T18:26:03.739Z,81.66
2022-12-11T18:29:09.030Z,81.42
2022-12-11T18:32:14.538Z,81.31
2022-12-11T18:35:19.923Z,81.47
2022-12-11T18:38:25.597Z,81.38
2022-12-11T18:41:29.783Z,81.17
2022-12-11T18:44:34.639Z,81.17
2022-12-11T18:47:40.846Z,81.45
2022-12-11T18:50:51.175Z,81.64
2022-12-11T18:53:55.547Z,81.86
2022-12-11T18:56:59.246Z,82.11
2022-12-11T19:00:24.276Z,82.60
2022-12-11T19:03:28.246Z,83.33
2022-12-11T19:06:36.317Z,83.76
2022-12-11T19:09:44.819Z,84.28
2022-12-11T19:12:56.064Z,84.44
2022-12-11T19:16:02.165Z,85.69
2022-12-11T19:19:16.277Z,86.31
2022-12-11T19:22:20.543Z,86.88
2022-12-11T19:25:25.069Z,87.51
2022-12-11T19:28:29.002Z,88.09
2022-12-11T19:31:33.840Z,88.80
2022-12-11T19:34:39.605Z,88.45
2022-12-11T19:37:45.613Z,89.46
2022-12-11T19:40:49.737Z,89.54
2022-12-11T19:43:55.487Z,89.79
2022-12-11T19:46:59.540Z,90.16
2022-12-11T19:50:04.847Z,90.43
2022-12-11T19:53:10.329Z,91.04
2022-12-11T19:56:16.448Z,90.99
2022-12-11T19:59:21.365Z,91.05
2022-12-11T20:02:27.521Z,91.18
2022-12-11T20:05:32.022Z,92.03
2022-12-11T20:08:45.688Z,91.74
2022-12-11T20:11:50.459Z,92.40
2022-12-11T20:14:53.953Z,93.04
2022-12-11T20:17:59.782Z,92.92
2022-12-11T20:21:11.960Z,93.45
2022-12-11T20:24:18.875Z,93.34
2022-12-11T20:27:23.108Z,93.13
2022-12-11T20:30:28.206Z,93.16
2022-12-11T20:33:33.683Z,93.63
2022-12-11T20:36:38.168Z,93.63
2022-12-11T20:39:44.340Z,93.86
2022-12-11T20:42:56.440Z,93.82
2022-12-11T20:46:02.843Z,94.06
2022-12-11T20:49:13.262Z,93.92
2022-12-11T20:52:19.065Z,94.07
2022-12-11T20:55:23.006Z,93.87
2022-12-11T20:58:26.761Z,93.71
2022-12-11T21:01:35.408Z,93.66
2022-12-11T21:04:46.810Z,93.53
2022-12-11T21:07:58.555Z,93.34
2022-12-11T21:11:09.069Z,93.24
2022-12-11T21:14:14.661Z,93.06
2022-12-11T21:17:18.100Z,92.97
2022-12-11T21:20:24.391Z,92.70
2022-12-11T21:23:28.508Z,92.30
2022-12-11T21:26:33.920Z,91.88
2022-12-11T21:29:36.872Z,91.39
2022-12-11T21:32:41.833Z,90.90
2022-12-11T21:35:45.659Z,89.39
2022-12-11T21:38:49.102Z,89.62
2022-12-11T21:41:51.877Z,88.49
2022-12-11T21:48:19.325Z,87.58
2022-12-11T21:51:25.291Z,86.75
2022-12-11T21:54:28.092Z,86.23
2022-12-11T21:57:31.144Z,85.35
2022-12-11T22:00:36.928Z,85.19
2022-12-11T22:03:39.981Z,84.32
2022-12-11T22:06:45.959Z,83.80
2022-12-11T22:09:48.993Z,82.96
2022-12-11T22:12:51.728Z,82.09
2022-12-11T22:15:55.321Z,81.58
2022-12-11T22:18:58.357Z,80.11
2022-12-11T22:22:01.280Z,80.10
2022-12-11T22:25:07.168Z,79.37
2022-12-11T22:28:10.207Z,79.25
2022-12-11T22:31:15.018Z,78.50
2022-12-11T22:34:20.532Z,78.83
2022-12-11T22:37:23.419Z,78.83
2022-12-11T22:40:27.005Z,78.59
2022-12-11T22:43:29.640Z,78.23
2022-12-11T22:46:32.643Z,78.38
2022-12-11T22:49:36.104Z,78.49
2022-12-11T22:52:39.709Z,78.61
2022-12-11T22:55:42.308Z,78.55
2022-12-11T22:58:47.153Z,79.10
2022-12-11T23:01:49.897Z,79.20
2022-12-11T23:04:53.003Z,79.40
2022-12-11T23:07:55.883Z,79.68
2022-12-11T23:10:58.936Z,80.08
2022-12-11T23:14:02.455Z,80.20
2022-12-11T23:17:05.446Z,80.63
2022-12-11T23:20:08.827Z,80.55
2022-12-11T23:23:11.905Z,81.45
2022-12-11T23:26:15.458Z,81.14
2022-12-11T23:29:18.479Z,81.32
2022-12-11T23:32:21.253Z,81.57
2022-12-11T23:35:24.145Z,81.27
2022-12-11T23:38:27.001Z,81.33
2022-12-11T23:41:29.955Z,81.34
2022-12-11T23:44:32.633Z,81.04
2022-12-11T23:47:35.695Z,80.62
2022-12-11T23:50:39.858Z,79.78
2022-12-11T23:53:43.535Z,79.82
2022-12-11T23:56:47.570Z,79.65
2022-12-11T23:59:50.569Z,79.37
